Time;durP1;ratioP1;P1;durP2;ratioP2;P2;SDS_P1;SDS_P2;PMS_P1;PMS_P2;Temp;Humidity;BMP_temperature;BMP_pressure;BME280_temperature;BME280_humidity;BME280_pressure;Samples;Min_cycle;Max_cycle;Signal;HPM_P1;HPM_P2
2023/10/12 00:02:04;;;;;;;9.15;4.50;;;;;;;11.79;100.00;101880.94;5114297;28;20032;-75
2023/10/12 00:04:50;;;;;;;7.25;4.20;;;;;;;11.69;100.00;101874.16;5115127;27;20063;-76
2023/10/12 00:07:16;;;;;;;8.88;4.10;;;;;;;11.51;100.00;101790.97;5115023;28;20100;-76
2023/10/12 00:09:48;;;;;;;7.82;4.00;;;;;;;11.33;100.00;101798.63;5114632;28;20067;-74
2023/10/12 00:12:23;;;;;;;7.07;4.40;;;;;;;11.80;100.00;101858.03;5114993;28;20031;-74
2023/10/12 00:14:55;;;;;;;8.32;4.22;;;;;;;11.55;100.00;101863.16;5113935;28;20651;-78
2023/10/12 00:17:26;;;;;;;8.15;3.90;;;;;;;11.64;100.00;101856.31;5114759;28;20034;-75
2023/10/12 00:19:52;;;;;;;7.32;3.75;;;;;;;11.28;100.00;101792.72;5114887;28;20456;-75
2023/10/12 00:22:18;;;;;;;8.20;3.78;;;;;;;11.89;100.00;101846.94;5114502;28;20035;-76
2023/10/12 00:24:44;;;;;;;5.78;3.80;;;;;;;11.76;100.00;101846.16;5114163;28;20031;-79
2023/10/12 00:27:14;;;;;;;9.20;3.60;;;;;;;11.12;100.00;101742.66;5115498;28;20038;-79
2023/10/12 00:29:45;;;;;;;8.38;3.92;;;;;;;11.80;100.00;101852.06;5114699;28;20027;-77
2023/10/12 00:32:10;;;;;;;6.22;3.90;;;;;;;11.72;100.00;101843.59;5114520;27;20024;-74
2023/10/12 00:34:45;;;;;;;9.23;3.90;;;;;;;11.74;100.00;101847.84;5114674;28;20027;-77
2023/10/12 00:37:12;;;;;;;7.45;3.90;;;;;;;12.01;100.00;101845.19;5114239;28;20027;-77
2023/10/12 00:40:23;;;;;;;5.38;3.67;;;;;;;11.88;100.00;101790.03;5114237;27;20043;-77
2023/10/12 00:42:32;;;;;;;7.30;3.60;;;;;;;11.58;100.00;101774.81;5110466;28;20043;-77
2023/10/12 00:45:05;;;;;;;9.15;4.03;;;;;;;11.98;100.00;101840.09;5114349;28;20043;-75
2023/10/12 00:47:48;;;;;;;10.07;3.58;;;;;;;11.66;100.00;101819.00;5112942;28;20039;-78
2023/10/12 00:50:14;;;;;;;7.60;4.10;;;;;;;11.67;100.00;101835.09;5112713;28;20538;-74
2023/10/12 00:55:37;;;;;;;10.70;3.90;;;;;;;11.27;100.00;101783.38;5113827;28;20122;-75
2023/10/12 00:58:08;;;;;;;6.93;3.88;;;;;;;11.43;100.00;101833.41;5114002;28;20104;-76
2023/10/12 01:00:45;;;;;;;6.70;3.97;;;;;;;11.18;100.00;101724.84;5114385;28;20066;-77
2023/10/12 01:08:34;;;;;;;11.73;4.80;;;;;;;10.72;100.00;101759.66;5114133;28;20039;-79
2023/10/12 01:11:07;;;;;;;9.38;4.10;;;;;;;10.92;100.00;101831.75;5113705;28;20088;-78
2023/10/12 01:13:33;;;;;;;7.85;4.18;;;;;;;10.57;100.00;101752.03;5113949;28;20023;-80
2023/10/12 01:16:11;;;;;;;7.00;3.80;;;;;;;10.90;100.00;101832.59;5113637;28;20039;-75
2023/10/12 01:18:38;;;;;;;7.78;4.13;;;;;;;10.39;100.00;101747.78;5113644;27;20028;-74
2023/10/12 01:21:03;;;;;;;7.72;4.18;;;;;;;10.79;100.00;101834.31;5114095;28;20019;-75
2023/10/12 01:23:30;;;;;;;8.48;3.85;;;;;;;10.94;100.00;101841.94;5113363;28;20093;-74
2023/10/12 01:26:09;;;;;;;7.85;3.70;;;;;;;10.60;100.00;101741.03;5113522;28;20099;-76
2023/10/12 01:28:35;;;;;;;5.72;3.20;;;;;;;10.62;100.00;101783.41;5113385;28;20024;-75
2023/10/12 01:31:02;;;;;;;5.85;3.78;;;;;;;10.20;100.00;101775.72;5112494;28;20028;-77
2023/10/12 01:33:28;;;;;;;6.20;3.38;;;;;;;10.52;100.00;101839.34;5111482;28;20051;-74
2023/10/12 01:35:55;;;;;;;5.63;3.35;;;;;;;10.38;100.00;101821.50;5112338;28;20041;-74
2023/10/12 01:38:22;;;;;;;5.18;3.50;;;;;;;10.28;100.00;101818.09;5111190;28;20115;-75
2023/10/12 01:40:54;;;;;;;7.85;3.33;;;;;;;10.58;100.00;101794.41;5111001;28;20033;-74
2023/10/12 01:43:20;;;;;;;6.05;3.35;;;;;;;10.84;100.00;101837.69;5112580;28;20500;-74
2023/10/12 01:46:05;;;;;;;6.47;3.35;;;;;;;10.43;100.00;101820.69;5112558;28;20032;-74
2023/10/12 01:48:33;;;;;;;6.40;3.42;;;;;;;9.84;100.00;101763.72;5111481;28;20019;-76
2023/10/12 01:51:03;;;;;;;9.60;3.88;;;;;;;9.90;100.00;101842.50;5111971;28;20040;-76
2023/10/12 01:53:32;;;;;;;8.15;3.58;;;;;;;9.74;100.00;101844.94;5111956;28;20074;-74
2023/10/12 01:56:01;;;;;;;8.73;3.22;;;;;;;9.75;100.00;101865.25;5112281;27;20071;-75
2023/10/12 01:58:32;;;;;;;6.15;3.05;;;;;;;10.39;100.00;101834.22;5112014;28;20020;-74
2023/10/12 02:01:07;;;;;;;9.13;4.00;;;;;;;10.01;100.00;101837.44;5112818;28;20057;-75
2023/10/12 02:03:37;;;;;;;8.48;3.33;;;;;;;9.80;100.00;101850.91;5112260;28;20088;-75
2023/10/12 02:06:05;;;;;;;6.72;3.58;;;;;;;9.80;100.00;101777.25;5112244;28;20035;-75
2023/10/12 02:08:39;;;;;;;9.32;3.90;;;;;;;9.90;100.00;101778.97;5112355;28;20035;-75
2023/10/12 02:11:06;;;;;;;8.50;3.88;;;;;;;10.23;100.00;101842.66;5110951;28;20115;-75
2023/10/12 02:13:36;;;;;;;5.70;3.33;;;;;;;9.93;100.00;101778.97;5112500;28;20043;-75
2023/10/12 02:16:12;;;;;;;8.25;3.30;;;;;;;10.18;100.00;101830.78;5111118;28;20027;-76
2023/10/12 02:18:38;;;;;;;8.30;3.30;;;;;;;10.03;100.00;101848.47;5111384;28;20027;-76
2023/10/12 02:23:38;;;;;;;6.15;3.10;;;;;;;10.37;100.00;101819.81;5111915;28;20126;-75
2023/10/12 02:26:27;;;;;;;8.73;3.90;;;;;;;10.09;100.00;101768.03;5111513;28;20027;-75
2023/10/12 02:28:53;;;;;;;7.80;3.55;;;;;;;9.89;100.00;101784.88;5112574;28;20032;-75
2023/10/12 02:31:20;;;;;;;6.85;3.33;;;;;;;10.13;100.00;101838.38;5111378;28;20028;-75
2023/10/12 02:33:46;;;;;;;7.22;3.33;;;;;;;9.95;100.00;101791.66;5112186;28;20031;-74
2023/10/12 02:36:13;;;;;;;10.10;3.78;;;;;;;10.03;100.00;101825.59;5112080;28;20028;-75
2023/10/12 02:38:41;;;;;;;15.93;4.13;;;;;;;9.73;100.00;101810.19;5111322;28;20024;-75
2023/10/12 02:41:12;;;;;;;8.60;3.90;;;;;;;9.92;100.00;101830.66;5112926;28;20106;-74
2023/10/12 02:43:40;;;;;;;4.28;3.05;;;;;;;9.41;100.00;101747.41;5112365;28;20043;-75
2023/10/12 02:46:12;;;;;;;11.07;4.20;;;;;;;9.70;100.00;101822.91;5110583;28;20035;-75
2023/10/12 02:48:38;;;;;;;;;;;;;;;9.50;100.00;101836.34;5111490;28;20031;-75
2023/10/12 02:51:06;;;;;;;8.57;4.13;;;;;;;9.16;100.00;101753.19;5111250;28;19912;-74
2023/10/12 02:53:34;;;;;;;9.43;4.32;;;;;;;9.58;100.00;101816.91;5112490;28;20051;-75
2023/10/12 02:56:01;;;;;;;12.23;4.13;;;;;;;9.04;100.00;101823.28;5111847;28;20023;-76
2023/10/12 02:58:27;;;;;;;10.20;4.13;;;;;;;9.18;100.00;101787.03;5112458;28;20032;-78
2023/10/12 03:00:56;;;;;;;15.25;4.38;;;;;;;8.90;100.00;101827.38;5112182;28;20118;-78
2023/10/12 03:03:25;;;;;;;8.93;4.13;;;;;;;8.17;100.00;101767.50;5110976;28;20031;-78
2023/10/12 03:05:53;;;;;;;11.05;4.22;;;;;;;8.61;100.00;101777.28;5113716;28;20498;-75
2023/10/12 03:08:21;;;;;;;13.07;4.95;;;;;;;8.51;100.00;101760.31;5115845;28;20500;-77
2023/10/12 03:13:36;;;;;;;13.48;5.00;;;;;;;9.17;100.00;101825.94;5115424;27;20031;-77
2023/10/12 03:16:13;;;;;;;11.43;5.28;;;;;;;9.02;100.00;101741.25;5115815;28;20073;-74
2023/10/12 03:18:39;;;;;;;9.80;5.18;;;;;;;8.94;100.00;101758.09;5115466;28;20028;-81
2023/10/12 03:21:11;;;;;;;13.40;4.90;;;;;;;8.58;100.00;101749.38;5115418;28;20035;-75
2023/10/12 03:23:38;;;;;;;10.80;5.45;;;;;;;9.31;100.00;101824.34;5115301;28;20034;-77
2023/10/12 03:26:06;;;;;;;13.60;5.10;;;;;;;8.41;100.00;101712.03;5113935;28;20076;-75
2023/10/12 03:28:42;;;;;;;16.02;5.70;;;;;;;8.92;100.00;101840.94;5113841;28;20023;-77
2023/10/12 03:33:46;;;;;;;14.07;6.10;;;;;;;8.95;100.00;101818.16;5115503;28;20035;-81
2023/10/12 03:36:36;;;;;;;11.23;5.40;;;;;;;8.60;100.00;101749.38;5114994;27;20394;-77
2023/10/12 03:47:05;;;;;;;13.05;7.30;;;;;;;8.73;100.00;101784.97;5115561;28;20039;-79
2023/10/12 03:49:32;;;;;;;16.05;8.20;;;;;;;9.10;100.00;101777.66;5114675;28;20031;-77
2023/10/12 03:52:12;;;;;;;13.93;7.35;;;;;;;9.27;100.00;101829.41;5114568;28;20042;-74
2023/10/12 03:54:39;;;;;;;12.98;7.30;;;;;;;9.04;100.00;101813.13;5114317;28;20031;-75
2023/10/12 03:57:19;;;;;;;17.42;7.32;;;;;;;8.61;100.00;101781.50;5114137;27;20035;-74
2023/10/12 04:00:15;;;;;;;17.98;7.82;;;;;;;8.39;100.00;101774.53;5114474;28;20131;-73
2023/10/12 04:05:16;;;;;;;13.18;7.03;;;;;;;9.19;100.00;101831.03;5113695;28;20142;-71
2023/10/12 04:11:19;;;;;;;17.73;10.57;;;;;;;8.64;100.00;101850.81;5114008;28;20109;-78
2023/10/12 04:13:08;;;;;;;;;;;;;;;8.35;100.00;101847.16;5114100;28;20051;-82
2023/10/12 04:18:28;;;;;;;21.52;12.73;;;;;;;8.34;100.00;101842.88;5081079;27;20035;-78
2023/10/12 04:20:57;;;;;;;19.10;11.98;;;;;;;8.61;100.00;101817.00;5113235;28;20046;-76
2023/10/12 04:28:55;;;;;;;17.52;10.57;;;;;;;8.60;100.00;101836.41;5113534;28;20050;-77
2023/10/12 04:31:32;;;;;;;17.90;10.27;;;;;;;8.69;100.00;101856.78;5113424;28;20054;-80
2023/10/12 04:39:26;;;;;;;21.08;12.27;;;;;;;8.34;100.00;101764.34;5096455;28;20479;-73
2023/10/12 04:46:51;;;;;;;16.92;11.77;;;;;;;9.27;100.00;101727.91;5113271;28;20035;-72
2023/10/12 04:51:49;;;;;;;20.23;11.98;;;;;;;9.73;100.00;101827.97;5113405;28;20100;-77
2023/10/12 04:54:23;;;;;;;23.67;12.20;;;;;;;10.22;100.00;101818.06;5113879;28;20035;-75
2023/10/12 04:59:47;;;;;;;23.80;12.60;;;;;;;9.79;100.00;101769.59;5113587;28;20027;-74
2023/10/12 05:09:38;;;;;;;25.55;16.92;;;;;;;13.59;100.00;101720.56;5113116;28;20038;-75
2023/10/12 05:12:04;;;;;;;26.58;14.63;;;;;;;14.99;100.00;101681.75;5112114;28;20036;-75
2023/10/12 05:14:31;;;;;;;25.67;14.93;;;;;;;16.55;100.00;101694.63;5112914;27;20104;-74
2023/10/12 05:16:56;;;;;;;29.20;15.43;;;;;;;16.50;100.00;101608.31;5112978;28;20066;-75
2023/10/12 05:19:21;;;;;;;28.33;15.60;;;;;;;16.71;100.00;101652.25;5111389;28;20024;-72
2023/10/12 05:21:47;;;;;;;30.20;16.50;;;;;;;16.59;100.00;101651.72;5112862;27;20520;-78
2023/10/12 05:24:12;;;;;;;24.60;16.90;;;;;;;16.68;100.00;101603.50;5112707;28;20040;-77
2023/10/12 05:26:38;;;;;;;29.55;19.13;;;;;;;17.04;100.00;101656.47;5112183;28;20035;-78
2023/10/12 05:31:57;;;;;;;32.22;17.30;;;;;;;18.32;100.00;101633.72;5096472;28;20039;-83
2023/10/12 05:35:05;;;;;;;34.05;17.75;;;;;;;17.62;100.00;101586.22;5092749;28;20501;-76
2023/10/12 05:39:55;;;;;;;26.08;16.48;;;;;;;16.28;100.00;101638.78;5091703;28;20118;-79
2023/10/12 05:42:24;;;;;;;21.67;12.70;;;;;;;14.47;100.00;101770.56;5092376;28;20028;-80
2023/10/12 05:44:52;;;;;;;28.38;15.20;;;;;;;13.29;100.00;101787.34;5092479;28;20024;-83
2023/10/12 05:47:18;;;;;;;28.65;14.65;;;;;;;12.80;100.00;101751.19;5092252;28;20036;-80
2023/10/12 05:49:50;;;;;;;24.27;14.50;;;;;;;12.74;100.00;101689.13;5092269;28;20028;-81
2023/10/12 05:52:17;;;;;;;25.05;13.93;;;;;;;13.72;100.00;101800.53;5092292;28;20028;-83
2023/10/12 05:54:43;;;;;;;37.58;16.55;;;;;;;13.73;100.00;101758.75;5092535;28;20028;-77
2023/10/12 05:57:19;;;;;;;26.40;13.88;;;;;;;12.87;100.00;101829.41;5092409;28;20114;-78
2023/10/12 05:59:46;;;;;;;19.90;13.05;;;;;;;12.40;100.00;101780.38;5090940;28;20039;-80
2023/10/12 06:02:13;;;;;;;24.27;14.07;;;;;;;12.67;100.00;101821.06;5091920;28;20114;-79
2023/10/12 06:04:38;;;;;;;28.45;18.00;;;;;;;12.66;100.00;101829.53;5091921;28;20154;-78
2023/10/12 06:07:05;;;;;;;27.67;15.90;;;;;;;13.62;100.00;101815.13;5091781;28;20052;-78
2023/10/12 06:09:37;;;;;;;24.70;16.23;;;;;;;12.98;100.00;101706.75;5092893;28;20595;-80
2023/10/12 06:12:06;;;;;;;;;;;;;;;13.72;100.00;101810.75;5094369;28;20032;-79
2023/10/12 06:14:37;;;;;;;21.52;14.48;;;;;;;13.43;100.00;101754.00;5091968;28;19912;-82
2023/10/12 06:17:05;;;;;;;22.80;14.95;;;;;;;14.19;100.00;101753.88;5091907;28;20558;-83
2023/10/12 06:19:37;;;;;;;25.33;15.60;;;;;;;14.48;100.00;101792.75;5091098;28;20039;-82
2023/10/12 06:24:54;;;;;;;22.40;14.77;;;;;;;14.06;100.00;101701.22;5092252;28;20623;-84
2023/10/12 06:29:47;;;;;;;23.15;13.63;;;;;;;13.51;100.00;101811.81;5092149;28;20115;-83
2023/10/12 06:32:19;;;;;;;22.95;13.73;;;;;;;14.40;100.00;101797.13;5093802;28;20119;-80
2023/10/12 06:45:52;;;;;;;17.05;12.00;;;;;;;14.76;100.00;101724.84;5096501;28;20032;-79
2023/10/12 06:51:05;;;;;;;16.80;11.48;;;;;;;15.90;100.00;101782.53;5096477;28;20094;-82
2023/10/12 06:53:34;;;;;;;20.38;10.98;;;;;;;15.20;100.00;101775.31;5096195;28;20059;-77
2023/10/12 06:59:07;;;;;;;24.42;13.15;;;;;;;15.99;100.00;101700.19;5095025;28;20032;-79
2023/10/12 07:01:37;;;;;;;21.13;16.38;;;;;;;15.76;100.00;101769.97;5095794;28;20024;-88
2023/10/12 07:04:06;;;;;;;21.37;16.53;;;;;;;16.14;100.00;101766.59;5095085;28;20051;-79
2023/10/12 07:06:38;;;;;;;25.90;16.25;;;;;;;15.02;100.00;101757.69;5095343;28;20271;-80
2023/10/12 07:09:04;;;;;;;21.15;14.40;;;;;;;15.66;100.00;101768.47;5094029;28;20406;-77
2023/10/12 07:11:30;;;;;;;19.55;15.52;;;;;;;16.14;100.00;101758.91;5094701;28;20028;-79
2023/10/12 07:13:56;;;;;;;18.60;13.93;;;;;;;14.97;100.00;101795.38;5095256;28;20067;-81
2023/10/12 07:16:22;;;;;;;18.95;14.20;;;;;;;16.55;100.00;101755.41;5094978;28;20024;-81
2023/10/12 07:18:49;;;;;;;16.13;12.75;;;;;;;16.67;100.00;101762.81;5095209;28;20051;-79
2023/10/12 07:21:21;;;;;;;18.73;11.32;;;;;;;16.89;100.00;101767.41;5095110;28;20032;-79
2023/10/12 07:23:57;;;;;;;11.88;9.95;;;;;;;15.38;100.00;101718.56;5095080;28;20059;-80
2023/10/12 07:26:30;;;;;;;15.90;9.75;;;;;;;16.76;100.00;101766.00;5095291;28;20028;-81
2023/10/12 07:28:55;;;;;;;13.68;9.73;;;;;;;16.64;100.00;101761.16;5095218;28;20024;-81
2023/10/12 07:31:41;;;;;;;12.07;8.15;;;;;;;17.31;100.00;101725.13;5094795;28;20454;-84
2023/10/12 07:34:13;;;;;;;13.50;9.00;;;;;;;17.15;100.00;101744.41;5094174;28;20035;-85
2023/10/12 07:39:20;;;;;;;12.57;7.45;;;;;;;16.52;100.00;101734.94;5094828;28;20024;-84
2023/10/12 07:42:25;;;;;;;11.90;7.60;;;;;;;17.71;100.00;101747.19;5093735;28;20043;-83
2023/10/12 07:44:42;;;;;;;12.45;6.63;;;;;;;17.81;100.00;101756.31;5092273;28;20043;-83
2023/10/12 07:47:18;;;;;;;12.65;8.25;;;;;;;17.39;100.00;101748.06;5094471;28;20035;-85
2023/10/12 07:49:51;;;;;;;12.77;8.23;;;;;;;17.10;100.00;101761.69;5094864;28;20487;-85
2023/10/12 07:54:57;;;;;;;15.30;10.70;;;;;;;17.98;100.00;101747.25;5094188;28;20039;-79
2023/10/12 07:57:29;;;;;;;16.23;9.60;;;;;;;18.28;100.00;101731.72;5093063;28;20031;-82
2023/10/12 08:03:17;;;;;;;12.73;9.43;;;;;;;18.06;100.00;101680.06;5094192;28;20032;-79
2023/10/12 08:10:48;;;;;;;16.85;11.18;;;;;;;18.36;100.00;101652.50;5094143;28;20035;-77
2023/10/12 08:15:56;;;;;;;17.77;13.15;;;;;;;18.24;100.00;101647.75;5093491;28;20032;-77
2023/10/12 08:24:39;;;;;;;23.43;12.90;;;;;;;19.34;100.00;101695.47;5093510;28;20032;-81
2023/10/12 08:29:16;;;;;;;18.05;12.20;;;;;;;19.17;100.00;101695.22;5093669;28;20035;-78
2023/10/12 08:31:44;;;;;;;14.95;11.73;;;;;;;19.33;100.00;101698.97;5092491;28;20032;-80
2023/10/12 08:39:49;;;;;;;19.38;12.00;;;;;;;18.81;100.00;101715.38;5093759;28;20028;-77
2023/10/12 08:44:59;;;;;;;11.70;7.68;;;;;;;18.95;100.00;101716.63;5093639;28;20044;-79
2023/10/12 08:47:44;;;;;;;13.05;7.95;;;;;;;19.23;100.00;101685.53;5093764;28;20028;-79
2023/10/12 08:52:53;;;;;;;12.07;6.80;;;;;;;18.94;100.00;101616.94;5093565;28;20031;-78
2023/10/12 08:55:24;;;;;;;11.45;6.50;;;;;;;19.53;100.00;101681.84;5093036;28;20059;-78
2023/10/12 08:58:16;;;;;;;14.07;6.25;;;;;;;19.68;100.00;101664.94;5093163;28;20478;-79
2023/10/12 09:03:29;;;;;;;11.10;5.07;;;;;;;20.09;100.00;101632.31;5093606;28;20032;-79
2023/10/12 09:05:54;;;;;;;6.82;4.70;;;;;;;20.53;100.00;101608.94;5092220;28;20105;-83
2023/10/12 09:11:26;;;;;;;5.13;3.22;;;;;;;20.18;100.00;101601.81;4747479;27;9999847;-79
2023/10/12 09:13:47;;;;;;;8.18;3.10;;;;;;;19.77;100.00;101600.03;5106366;28;20062;-75
2023/10/12 09:16:15;;;;;;;9.10;3.80;;;;;;;20.33;100.00;101569.31;5109445;28;20037;-75
2023/10/12 09:18:46;;;;;;;5.18;3.28;;;;;;;20.25;100.00;101556.75;5109655;28;20032;-77
2023/10/12 09:23:50;;;;;;;5.47;3.20;;;;;;;20.50;100.00;101598.72;5109671;28;20100;-79
2023/10/12 09:26:21;;;;;;;6.43;3.40;;;;;;;20.70;100.00;101534.06;5112607;28;20126;-78
2023/10/12 09:36:53;;;;;;;8.02;3.72;;;;;;;21.37;100.00;101544.75;5113060;28;20032;-80
2023/10/12 09:39:24;;;;;;;9.50;3.70;;;;;;;21.09;100.00;101526.28;5112910;28;20055;-83
2023/10/12 09:41:59;;;;;;;;;;;;;;;20.89;100.00;101546.16;5113519;28;20023;-78
2023/10/12 09:44:26;;;;;;;8.02;3.60;;;;;;;21.32;100.00;101538.13;5111851;28;19916;-79
2023/10/12 09:46:55;;;;;;;6.80;3.55;;;;;;;21.42;100.00;101477.25;5111043;28;20023;-79
2023/10/12 09:49:22;;;;;;;8.23;3.50;;;;;;;21.52;100.00;101500.03;5112102;28;20027;-83
2023/10/12 09:51:56;;;;;;;7.10;3.80;;;;;;;21.61;100.00;101496.13;5115198;28;20110;-80
2023/10/12 09:54:28;;;;;;;9.93;6.50;;;;;;;21.22;100.00;101519.59;5113920;28;20038;-84
2023/10/12 09:57:03;;;;;;;;;;;;;;;22.08;100.00;101489.47;5112936;28;20482;-83
2023/10/12 09:59:31;;;;;;;8.88;3.65;;;;;;;22.01;100.00;101476.88;5111297;28;19918;-84
2023/10/12 10:02:27;;;;;;;10.45;4.00;;;;;;;22.07;100.00;101469.63;5113407;28;20034;-80
2023/10/12 10:04:57;;;;;;;8.90;3.95;;;;;;;22.07;100.00;101459.25;5111886;28;20047;-82
2023/10/12 10:07:27;;;;;;;8.30;3.72;;;;;;;21.70;100.00;101405.06;5112820;28;20030;-83
2023/10/12 10:10:00;;;;;;;14.75;5.15;;;;;;;22.24;100.00;101469.59;5112431;28;20059;-84
2023/10/12 10:12:35;;;;;;;9.80;4.78;;;;;;;22.28;100.00;101419.25;5112734;28;20035;-82
2023/10/12 10:15:26;;;;;;;10.43;4.95;;;;;;;22.24;100.00;101391.81;5110153;28;20024;-84
2023/10/12 10:17:55;;;;;;;10.55;4.22;;;;;;;22.38;100.00;101378.97;5111896;28;20093;-80
2023/10/12 10:23:01;;;;;;;9.40;3.90;;;;;;;22.39;100.00;101431.66;5111801;28;20042;-85
2023/10/12 10:25:34;;;;;;;8.15;4.15;;;;;;;22.38;100.00;101422.22;5110837;28;20038;-86
2023/10/12 10:28:06;;;;;;;8.43;4.45;;;;;;;22.72;100.00;101418.66;5111327;28;20028;-87
2023/10/12 10:30:40;;;;;;;7.47;4.75;;;;;;;22.11;100.00;101414.13;5112551;28;20036;-84
2023/10/12 10:33:17;;;;;;;9.40;4.40;;;;;;;22.58;100.00;101416.00;5112430;28;20057;-89
2023/10/12 10:36:16;;;;;;;11.48;3.92;;;;;;;21.80;100.00;101426.97;5112271;28;20424;-87
2023/10/12 10:38:53;;;;;;;15.48;4.30;;;;;;;22.95;100.00;101400.06;5112008;28;20030;-86
2023/10/12 10:41:46;;;;;;;13.18;2.97;;;;;;;23.12;100.00;101392.13;5111663;28;20031;-85
2023/10/12 10:44:15;;;;;;;5.88;3.03;;;;;;;22.66;100.00;101336.00;5112298;28;20492;-84
2023/10/12 10:46:45;;;;;;;14.85;3.20;;;;;;;23.46;100.00;101365.94;5112472;28;20034;-83
2023/10/12 10:49:15;;;;;;;8.32;3.60;;;;;;;22.78;100.00;101293.81;5111692;27;20104;-84
2023/10/12 10:51:47;;;;;;;8.75;3.65;;;;;;;22.86;100.00;101320.13;5110582;28;20031;-81
2023/10/12 10:54:18;;;;;;;5.78;3.63;;;;;;;23.54;100.00;101360.28;5111692;28;20023;-82
2023/10/12 10:56:47;;;;;;;8.18;3.00;;;;;;;22.15;100.00;101309.41;5110756;28;20092;-77
2023/10/12 10:59:14;;;;;;;8.30;3.22;;;;;;;23.05;100.00;101302.59;5110704;28;20028;-76
2023/10/12 11:01:46;;;;;;;15.35;3.05;;;;;;;22.98;100.00;101353.16;5111530;28;20550;-79
2023/10/12 11:04:18;;;;;;;6.78;3.13;;;;;;;24.05;100.00;101328.56;5111697;28;20126;-75
2023/10/12 11:06:53;;;;;;;5.85;3.00;;;;;;;23.55;100.00;101331.59;5110355;28;20086;-74
2023/10/12 11:09:31;;;;;;;6.35;3.10;;;;;;;23.08;100.00;101281.63;5110768;28;20055;-76
2023/10/12 11:12:00;;;;;;;8.45;3.35;;;;;;;23.59;100.00;101319.28;5111469;28;20531;-76
2023/10/12 11:14:31;;;;;;;5.65;3.22;;;;;;;23.87;100.00;101301.91;5111271;28;20032;-75
2023/10/12 11:16:57;;;;;;;7.25;3.08;;;;;;;23.71;100.00;101308.16;5111144;28;20046;-79
2023/10/12 11:19:24;;;;;;;8.15;3.03;;;;;;;23.17;100.00;101260.34;5110180;28;20036;-78
2023/10/12 11:21:53;;;;;;;7.97;3.20;;;;;;;23.68;100.00;101259.81;5110371;28;20114;-77
2023/10/12 11:24:26;;;;;;;7.78;3.15;;;;;;;23.45;100.00;101303.69;5111469;28;20047;-72
2023/10/12 11:26:54;;;;;;;5.82;2.63;;;;;;;24.21;100.00;101285.06;5113615;28;20024;-77
2023/10/12 11:29:22;;;;;;;9.43;3.38;;;;;;;24.37;100.00;101269.31;5113713;28;20736;-78
2023/10/12 11:32:16;;;;;;;6.55;2.70;;;;;;;23.90;100.00;101282.72;5113716;28;20035;-78
2023/10/12 11:34:44;;;;;;;4.30;2.40;;;;;;;22.43;100.00;101246.50;5114509;27;20023;-77
2023/10/12 11:37:13;;;;;;;7.00;2.65;;;;;;;23.24;100.00;101295.38;5115161;28;20036;-77
2023/10/12 11:39:49;;;;;;;6.35;2.58;;;;;;;23.08;100.00;101290.28;5114642;28;20062;-76
2023/10/12 11:42:14;;;;;;;5.85;2.60;;;;;;;24.15;100.00;101209.22;5114325;28;20478;-75
2023/10/12 11:44:44;;;;;;;4.88;2.83;;;;;;;23.92;100.00;101271.28;5114588;27;20042;-83
2023/10/12 11:47:23;;;;;;;7.53;2.90;;;;;;;24.00;100.00;101263.84;5113861;28;20390;-79
2023/10/12 11:49:57;;;;;;;5.70;2.67;;;;;;;23.88;100.00;101262.03;5113835;28;20035;-85
2023/10/12 11:52:33;;;;;;;5.10;2.95;;;;;;;23.53;100.00;101265.13;5113170;28;20066;-79
2023/10/12 11:55:06;;;;;;;6.18;2.78;;;;;;;24.43;100.00;101256.75;5114376;28;20049;-82
2023/10/12 11:57:37;;;;;;;8.07;2.95;;;;;;;23.77;100.00;101261.03;5114336;28;20066;-78
2023/10/12 12:00:21;;;;;;;;;;;;;;;23.94;100.00;101259.03;5114725;28;20030;-76
2023/10/12 12:02:52;;;;;;;6.43;2.70;;;;;;;23.81;100.00;101185.38;5113126;28;20021;-77
2023/10/12 12:05:19;;;;;;;10.30;3.65;;;;;;;23.71;100.00;101225.03;5113497;28;20105;-76
2023/10/12 12:07:50;;;;;;;7.72;2.83;;;;;;;23.85;100.00;101184.25;5114358;28;20031;-76
2023/10/12 12:10:17;;;;;;;7.35;3.42;;;;;;;23.78;100.00;101184.75;5114423;28;20036;-76
2023/10/12 12:12:44;;;;;;;6.65;2.78;;;;;;;24.35;100.00;101211.38;5114353;28;20032;-75
2023/10/12 12:15:14;;;;;;;3.40;2.75;;;;;;;24.50;100.00;101215.59;5114119;28;20477;-75
2023/10/12 12:17:40;;;;;;;6.97;2.70;;;;;;;24.09;100.00;101171.47;5113854;28;20062;-77
2023/10/12 12:20:13;;;;;;;6.72;3.45;;;;;;;24.40;100.00;101158.16;5113800;28;20309;-76
2023/10/12 12:22:47;;;;;;;9.27;3.10;;;;;;;24.29;100.00;101223.00;5112753;28;20031;-75
2023/10/12 12:25:20;;;;;;;5.43;3.05;;;;;;;23.77;100.00;101141.53;5113779;28;20027;-76
2023/10/12 12:27:49;;;;;;;5.30;3.17;;;;;;;23.89;100.00;101229.88;5114029;28;20080;-75
2023/10/12 12:30:32;;;;;;;7.82;2.95;;;;;;;23.01;100.00;101077.94;5112101;28;20485;-74
2023/10/12 12:33:00;;;;;;;5.00;3.08;;;;;;;23.65;100.00;101173.47;5113769;28;20407;-75
2023/10/12 12:35:30;;;;;;;6.00;2.60;;;;;;;24.19;100.00;101205.50;5112309;28;20028;-74
2023/10/12 12:38:05;;;;;;;5.82;2.67;;;;;;;24.08;100.00;101133.44;5111239;28;20035;-74
2023/10/12 12:40:38;;;;;;;4.57;2.72;;;;;;;24.47;100.00;101181.97;5113005;28;20042;-74
2023/10/12 12:43:04;;;;;;;6.45;2.80;;;;;;;23.89;100.00;101128.56;5113349;28;20115;-77
2023/10/12 12:45:30;;;;;;;3.65;2.45;;;;;;;23.66;100.00;101133.56;5113352;28;20030;-75
2023/10/12 12:47:56;;;;;;;5.75;2.50;;;;;;;23.68;100.00;101178.44;5112189;28;20613;-75
2023/10/12 12:50:21;;;;;;;7.95;2.60;;;;;;;24.19;100.00;101189.91;5112323;28;20031;-75
2023/10/12 12:52:47;;;;;;;4.78;2.35;;;;;;;23.55;100.00;101076.28;5112915;28;20023;-74
2023/10/12 12:55:16;;;;;;;6.00;2.50;;;;;;;24.11;100.00;101124.59;5111419;28;20488;-75
2023/10/12 12:57:43;;;;;;;4.65;2.60;;;;;;;24.42;100.00;101178.84;5113171;28;20024;-75
2023/10/12 13:00:10;;;;;;;7.00;3.42;;;;;;;24.53;100.00;101163.34;5112073;28;20077;-75
2023/10/12 13:02:39;;;;;;;4.93;2.25;;;;;;;23.57;100.00;101123.75;5112751;28;20162;-74
2023/10/12 13:05:05;;;;;;;3.88;2.60;;;;;;;24.13;100.00;101165.13;5113137;28;20043;-80
2023/10/12 13:07:31;;;;;;;3.35;2.10;;;;;;;23.98;100.00;101166.13;5113117;27;20417;-79
2023/10/12 13:09:57;;;;;;;8.10;2.53;;;;;;;23.93;100.00;101169.00;5112688;28;20024;-76
2023/10/12 13:12:23;;;;;;;6.65;2.55;;;;;;;23.85;100.00;101160.84;5113246;28;20031;-81
2023/10/12 13:14:49;;;;;;;5.47;2.38;;;;;;;23.93;100.00;101156.00;5112736;28;20118;-79
2023/10/12 13:17:16;;;;;;;4.15;2.42;;;;;;;23.91;100.00;101094.66;5113698;28;20035;-78
2023/10/12 13:19:44;;;;;;;6.00;2.50;;;;;;;24.01;100.00;101145.09;5112917;28;20565;-80
2023/10/12 13:22:10;;;;;;;5.68;2.28;;;;;;;23.70;100.00;101098.66;5111636;28;20501;-78
2023/10/12 13:24:37;;;;;;;8.30;2.50;;;;;;;24.24;100.00;101146.25;5111378;28;20016;-79
2023/10/12 13:27:08;;;;;;;6.93;2.60;;;;;;;23.87;100.00;101099.22;5113828;28;20024;-79
2023/10/12 13:29:37;;;;;;;5.50;2.42;;;;;;;23.67;100.00;101057.31;5115808;27;20027;-79
2023/10/12 13:32:08;;;;;;;5.05;2.45;;;;;;;24.71;100.00;101123.09;5111588;27;20131;-80
2023/10/12 13:34:33;;;;;;;6.43;2.10;;;;;;;23.38;100.00;101137.06;5112602;28;20028;-78
2023/10/12 13:36:59;;;;;;;6.05;2.20;;;;;;;24.35;100.00;101131.59;5112150;28;20410;-77
2023/10/12 13:39:25;;;;;;;6.07;2.42;;;;;;;24.16;100.00;101127.72;5112282;28;20058;-81
2023/10/12 13:41:51;;;;;;;4.25;2.55;;;;;;;24.08;100.00;101058.06;5113024;28;20024;-79
2023/10/12 13:44:25;;;;;;;6.97;2.53;;;;;;;24.65;100.00;101107.91;5112393;28;20080;-79
2023/10/12 13:46:51;;;;;;;4.63;2.35;;;;;;;24.48;100.00;101077.00;5112949;28;20474;-80
2023/10/12 13:49:17;;;;;;;8.65;2.53;;;;;;;24.71;100.00;101099.69;5110250;28;20024;-80
2023/10/12 13:51:47;;;;;;;5.10;2.60;;;;;;;24.54;100.00;101095.59;5112390;28;20023;-81
2023/10/12 13:54:14;;;;;;;5.25;2.50;;;;;;;24.28;100.00;101106.97;5111495;28;20023;-79